Time;durP1;ratioP1;P1;durP2;ratioP2;P2;SDS_P1;SDS_P2;PMS_P1;PMS_P2;Temp;Humidity;BMP_temperature;BMP_pressure;BME280_temperature;BME280_humidity;BME280_pressure;Samples;Min_cycle;Max_cycle;Signal;HPM_P1;HPM_P2
2023/07/08 00:00:18;;;;;;;6.43;3.65;;;;;;;19.22;49.94;101190.13;682314;28;1466;-79
2023/07/08 00:00:45;;;;;;;8.07;4.00;;;;;;;19.09;49.87;101171.63;683008;29;1131;-79
2023/07/08 00:01:13;;;;;;;8.40;4.07;;;;;;;19.21;49.95;101193.66;685335;28;1141;-79
2023/07/08 00:01:33;;;;;;;8.02;3.85;;;;;;;19.16;50.05;101186.63;682984;28;822;-79
2023/07/08 00:01:55;;;;;;;7.68;3.70;;;;;;;19.10;50.21;101170.75;682700;28;1931;-79
2023/07/08 00:02:16;;;;;;;6.70;3.83;;;;;;;19.10;50.10;101176.03;679625;29;994;-79
2023/07/08 00:02:36;;;;;;;5.70;4.00;;;;;;;19.10;50.09;101175.13;683320;28;1340;-79
2023/07/08 00:02:57;;;;;;;6.55;4.25;;;;;;;19.13;50.36;101181.31;688124;28;1171;-79
2023/07/08 00:03:19;;;;;;;5.97;3.83;;;;;;;19.11;50.39;101180.44;690430;28;1283;-79
2023/07/08 00:03:40;;;;;;;6.00;3.97;;;;;;;19.08;50.43;101180.44;688164;28;1422;-79
2023/07/08 00:04:03;;;;;;;4.88;3.75;;;;;;;19.09;50.62;101179.56;682599;28;1261;-79
2023/07/08 00:04:25;;;;;;;5.15;3.72;;;;;;;19.12;50.41;101189.28;682587;28;1198;-80
2023/07/08 00:04:46;;;;;;;5.22;3.90;;;;;;;19.06;50.41;101173.41;682886;29;1130;-79
2023/07/08 00:05:09;;;;;;;5.70;4.07;;;;;;;19.07;50.13;101170.75;679928;29;1297;-79
2023/07/08 00:05:30;;;;;;;5.43;4.10;;;;;;;19.08;50.61;101177.81;683053;28;819;-79
2023/07/08 00:05:55;;;;;;;5.93;4.10;;;;;;;19.05;50.76;101172.50;682238;28;1137;-79
2023/07/08 00:06:19;;;;;;;6.30;4.07;;;;;;;19.02;50.55;101177.78;687870;28;1144;-79
2023/07/08 00:06:40;;;;;;;7.43;4.10;;;;;;;19.12;50.69;101189.28;685693;28;853;-79
2023/07/08 00:07:00;;;;;;;6.43;3.83;;;;;;;19.06;50.78;101174.28;685548;28;918;-79
2023/07/08 00:07:22;;;;;;;7.70;3.80;;;;;;;19.04;50.91;101176.03;685389;28;1077;-79
2023/07/08 00:07:44;;;;;;;7.00;3.70;;;;;;;19.03;50.86;101172.53;683092;29;883;-79
2023/07/08 00:08:04;;;;;;;7.22;3.70;;;;;;;18.99;50.82;101168.06;685328;28;1333;-80
2023/07/08 00:08:25;;;;;;;5.65;3.70;;;;;;;19.00;50.76;101167.19;687917;28;1151;-79
2023/07/08 00:08:46;;;;;;;5.50;3.67;;;;;;;18.99;50.67;101167.22;680335;29;1284;-79
2023/07/08 00:09:13;;;;;;;5.33;3.70;;;;;;;19.04;50.68;101176.03;681470;28;1761;-79
2023/07/08 00:09:33;;;;;;;5.88;3.88;;;;;;;19.01;50.82;101165.44;680227;29;915;-79
2023/07/08 00:09:54;;;;;;;6.05;4.00;;;;;;;18.97;50.78;101168.94;680127;29;1086;-79
2023/07/08 00:10:20;;;;;;;6.15;3.92;;;;;;;19.01;50.63;101165.44;682280;28;1647;-79
2023/07/08 00:10:41;;;;;;;6.03;3.70;;;;;;;18.99;50.53;101176.00;685578;28;802;-79
2023/07/08 00:11:10;;;;;;;6.30;3.80;;;;;;;19.03;50.61;101179.56;682564;29;1275;-79
2023/07/08 00:11:30;;;;;;;6.30;3.70;;;;;;;19.02;50.82;101180.41;685461;28;1078;-79
2023/07/08 00:11:51;;;;;;;4.97;3.55;;;;;;;19.00;50.88;101174.25;685385;28;1289;-79
2023/07/08 00:12:12;;;;;;;5.03;3.60;;;;;;;18.94;51.25;101161.03;687957;28;1140;-79
2023/07/08 00:12:32;;;;;;;5.47;3.80;;;;;;;18.92;51.05;101155.72;690846;28;1173;-79
2023/07/08 00:12:56;;;;;;;6.13;3.90;;;;;;;18.86;50.98;101151.34;682725;28;1192;-80
2023/07/08 00:13:18;;;;;;;6.68;3.88;;;;;;;18.90;50.98;101158.41;682516;29;1096;-79
2023/07/08 00:13:39;;;;;;;7.28;3.70;;;;;;;18.95;51.11;101162.78;680313;29;1237;-79
2023/07/08 00:14:00;;;;;;;6.60;3.60;;;;;;;18.91;51.22;101165.44;680019;29;1630;-79
2023/07/08 00:14:21;;;;;;;6.53;3.80;;;;;;;18.94;51.20;101163.69;682451;28;1060;-79
2023/07/08 00:14:42;;;;;;;5.78;3.80;;;;;;;18.96;51.25;101170.72;685619;28;847;-79
2023/07/08 00:15:03;;;;;;;6.03;4.00;;;;;;;18.91;51.23;101169.84;685469;28;1148;-79
2023/07/08 00:15:28;;;;;;;8.35;4.00;;;;;;;18.90;51.32;101163.69;682595;28;1105;-79
2023/07/08 00:15:49;;;;;;;9.25;4.30;;;;;;;18.88;51.44;101160.16;682187;28;1103;-79
2023/07/08 00:16:18;;;;;;;8.25;4.20;;;;;;;18.86;51.13;101155.72;682539;29;1193;-79
2023/07/08 00:16:39;;;;;;;5.28;3.97;;;;;;;18.95;51.20;101173.38;675167;29;776;-79
2023/07/08 00:16:59;;;;;;;4.97;3.72;;;;;;;18.93;51.31;101172.50;677488;29;1060;-80
2023/07/08 00:17:20;;;;;;;5.28;3.80;;;;;;;18.91;51.32;101164.56;679783;29;1246;-79
2023/07/08 00:17:41;;;;;;;5.20;3.80;;;;;;;18.90;51.31;101168.97;680179;29;1197;-80
2023/07/08 00:18:10;;;;;;;6.25;4.00;;;;;;;18.96;51.34;101172.47;682862;28;1196;-79
2023/07/08 00:18:31;;;;;;;5.95;3.65;;;;;;;18.93;51.31;101165.44;677455;29;875;-79
2023/07/08 00:18:52;;;;;;;5.30;3.63;;;;;;;18.90;51.38;101163.69;680626;28;1270;-79
2023/07/08 00:19:12;;;;;;;5.40;3.60;;;;;;;18.84;51.26;101153.09;685235;28;1037;-80
2023/07/08 00:19:33;;;;;;;6.57;3.92;;;;;;;18.94;51.31;101171.59;685498;28;1273;-79
2023/07/08 00:19:54;;;;;;;6.60;3.97;;;;;;;18.84;51.17;101155.75;682846;29;983;-79
2023/07/08 00:20:23;;;;;;;6.88;3.97;;;;;;;18.86;51.22;101156.63;682872;28;1260;-79
2023/07/08 00:20:47;;;;;;;5.70;3.90;;;;;;;18.88;51.35;101160.16;685965;28;1610;-79
2023/07/08 00:21:17;;;;;;;5.95;4.22;;;;;;;18.85;51.29;101157.50;690602;28;1431;-79
2023/07/08 00:21:38;;;;;;;6.72;4.35;;;;;;;18.90;51.20;101168.97;685472;28;1133;-79
2023/07/08 00:21:58;;;;;;;6.43;4.10;;;;;;;18.90;51.18;101162.78;688155;28;1977;-79
2023/07/08 00:22:19;;;;;;;6.07;3.70;;;;;;;18.91;51.24;101170.75;690593;28;1038;-80
2023/07/08 00:22:41;;;;;;;5.50;3.50;;;;;;;18.88;51.26;101165.44;688317;28;752;-79
2023/07/08 00:23:01;;;;;;;6.82;3.60;;;;;;;18.79;51.37;101146.94;685292;28;1249;-79
2023/07/08 00:23:22;;;;;;;6.90;3.60;;;;;;;18.81;51.35;101158.38;687936;28;1111;-79
2023/07/08 00:23:50;;;;;;;6.70;3.77;;;;;;;18.84;51.42;101155.75;691055;28;775;-79
2023/07/08 00:24:12;;;;;;;5.93;3.90;;;;;;;18.80;51.48;101156.63;687940;28;850;-79
2023/07/08 00:24:32;;;;;;;6.50;4.00;;;;;;;18.77;51.51;101144.28;682934;28;1188;-79
2023/07/08 00:24:53;;;;;;;6.85;4.07;;;;;;;18.83;51.52;101159.28;680177;29;1280;-79
2023/07/08 00:25:15;;;;;;;6.13;3.92;;;;;;;18.80;51.62;101151.34;685084;28;1421;-79
2023/07/08 00:25:35;;;;;;;6.05;3.90;;;;;;;18.81;51.59;101152.22;687629;28;1122;-79
2023/07/08 00:25:56;;;;;;;5.82;3.90;;;;;;;18.86;51.57;101166.31;688144;28;981;-79
2023/07/08 00:26:45;;;;;;;6.47;3.90;;;;;;;18.88;51.55;101170.72;685299;28;1005;-80
2023/07/08 00:27:10;;;;;;;7.13;4.25;;;;;;;18.77;51.60;101152.22;690674;28;1136;-79
2023/07/08 00:27:31;;;;;;;6.45;4.30;;;;;;;18.82;51.46;101157.53;688073;28;1240;-80
2023/07/08 00:27:51;;;;;;;6.10;4.07;;;;;;;18.76;51.45;101150.44;682836;28;1045;-79
2023/07/08 00:28:21;;;;;;;5.88;3.90;;;;;;;18.80;51.54;101158.41;682407;28;1147;-79
2023/07/08 00:28:41;;;;;;;6.00;4.10;;;;;;;18.76;51.67;101154.88;688224;28;790;-79
2023/07/08 00:29:02;;;;;;;6.60;4.20;;;;;;;18.84;51.48;101166.34;690373;28;1153;-79
2023/07/08 00:29:23;;;;;;;6.13;4.00;;;;;;;18.72;51.39;101145.16;687913;28;1155;-79
2023/07/08 00:29:43;;;;;;;5.90;3.80;;;;;;;18.81;51.34;101163.66;685671;28;732;-79
2023/07/08 00:30:20;;;;;;;4.75;3.40;;;;;;;18.76;51.62;101154.88;688028;28;1086;-79
2023/07/08 00:30:41;;;;;;;5.75;3.38;;;;;;;18.75;51.64;101151.34;685536;28;759;-79
2023/07/08 00:31:02;;;;;;;7.93;3.78;;;;;;;18.79;51.66;101162.78;690245;28;1188;-79
2023/07/08 00:31:23;;;;;;;8.52;4.10;;;;;;;18.76;51.80;101158.38;679739;28;1299;-79
2023/07/08 00:31:44;;;;;;;7.85;3.85;;;;;;;18.69;51.94;101147.81;685510;28;1233;-79
2023/07/08 00:32:11;;;;;;;7.38;3.70;;;;;;;18.69;51.86;101147.81;687762;28;1326;-79
2023/07/08 00:32:31;;;;;;;6.10;3.50;;;;;;;18.68;51.71;101148.72;688223;28;923;-80
2023/07/08 00:32:53;;;;;;;4.93;3.60;;;;;;;18.72;51.99;101155.75;680141;28;1023;-79
2023/07/08 00:33:14;;;;;;;4.78;3.60;;;;;;;18.67;51.93;101152.25;682640;28;1155;-79
2023/07/08 00:33:35;;;;;;;5.50;3.90;;;;;;;18.68;51.93;101148.72;685625;28;1206;-79
2023/07/08 00:33:56;;;;;;;7.50;3.90;;;;;;;18.76;52.11;101162.81;685462;28;1058;-79
2023/07/08 00:34:16;;;;;;;7.87;4.20;;;;;;;18.72;52.11;101153.09;682391;28;1137;-79
2023/07/08 00:34:38;;;;;;;7.70;4.25;;;;;;;18.66;51.94;101150.44;682647;28;1368;-79
2023/07/08 00:34:59;;;;;;;6.10;4.10;;;;;;;18.68;52.04;101146.94;683086;28;1224;-78
2023/07/08 00:35:28;;;;;;;5.72;3.92;;;;;;;18.70;51.98;101157.50;685528;28;1037;-79
2023/07/08 00:35:48;;;;;;;4.90;3.60;;;;;;;18.64;52.10;101146.03;682125;28;1002;-79
2023/07/08 00:36:14;;;;;;;5.10;3.63;;;;;;;18.73;52.05;101165.44;687804;28;1213;-79
2023/07/08 00:36:35;;;;;;;7.60;4.00;;;;;;;18.65;52.15;101152.22;687237;28;847;-79
2023/07/08 00:36:56;;;;;;;8.05;4.20;;;;;;;18.63;52.11;101144.28;683193;28;1276;-79
2023/07/08 00:37:17;;;;;;;8.38;4.22;;;;;;;18.61;52.16;101146.06;677588;28;1299;-79
2023/07/08 00:37:37;;;;;;;6.93;4.00;;;;;;;18.60;52.24;101133.72;682709;28;1164;-79
2023/07/08 00:38:01;;;;;;;8.00;4.00;;;;;;;18.66;52.31;101153.09;688072;28;977;-79
2023/07/08 00:38:28;;;;;;;7.97;3.90;;;;;;;18.71;52.11;101156.63;682130;28;1433;-79
2023/07/08 00:38:48;;;;;;;8.07;3.80;;;;;;;18.66;52.26;101147.81;688112;28;1146;-79
2023/07/08 00:39:18;;;;;;;7.70;3.50;;;;;;;18.69;52.06;101153.97;692264;28;1023;-79
2023/07/08 00:39:39;;;;;;;6.00;3.95;;;;;;;18.60;52.22;101138.13;688196;28;1103;-79
2023/07/08 00:40:00;;;;;;;6.28;3.90;;;;;;;18.66;52.13;101150.44;685378;28;1116;-79
2023/07/08 00:40:22;;;;;;;6.78;4.20;;;;;;;18.63;52.24;101141.63;691482;28;1303;-79
2023/07/08 00:40:53;;;;;;;6.32;3.90;;;;;;;18.61;52.17;101140.78;685463;28;1255;-79
2023/07/08 00:41:22;;;;;;;5.65;3.65;;;;;;;18.64;52.34;101140.75;687686;28;1225;-79
2023/07/08 00:41:43;;;;;;;5.20;3.60;;;;;;;18.67;52.25;101149.59;690877;28;1911;-80
2023/07/08 00:42:18;;;;;;;5.05;3.40;;;;;;;18.66;52.12;101147.81;690653;28;1117;-79
2023/07/08 00:42:40;;;;;;;4.88;3.30;;;;;;;18.60;52.25;101136.38;687772;28;901;-80
2023/07/08 00:43:05;;;;;;;6.45;3.60;;;;;;;18.70;52.44;101146.94;688028;28;1012;-79
2023/07/08 00:43:36;;;;;;;7.65;3.85;;;;;;;18.70;52.62;101149.59;688092;28;1082;-79
2023/07/08 00:43:58;;;;;;;6.00;3.60;;;;;;;18.66;52.31;101147.81;690725;28;988;-79
2023/07/08 00:44:19;;;;;;;4.60;3.40;;;;;;;18.61;52.31;101140.78;685021;28;1279;-79
2023/07/08 00:44:43;;;;;;;4.97;3.40;;;;;;;18.66;52.31;101148.69;680315;29;1349;-79
2023/07/08 00:45:31;;;;;;;5.28;3.40;;;;;;;18.60;52.18;101138.13;685309;28;1124;-79
2023/07/08 00:46:01;;;;;;;6.25;3.70;;;;;;;18.57;52.36;101138.13;683711;28;1283;-79
2023/07/08 00:46:29;;;;;;;6.15;3.78;;;;;;;18.62;52.30;101153.09;687672;28;990;-79
2023/07/08 00:47:10;;;;;;;6.07;3.70;;;;;;;18.59;52.11;101158.41;685336;28;1007;-79
2023/07/08 00:47:31;;;;;;;5.30;3.70;;;;;;;18.56;52.45;101142.50;680573;28;2168;-79
2023/07/08 00:47:52;;;;;;;5.80;3.70;;;;;;;18.58;52.41;101151.34;685436;28;975;-79
2023/07/08 00:48:24;;;;;;;9.00;3.88;;;;;;;18.47;52.26;101142.50;685524;28;1473;-79
2023/07/08 00:48:46;;;;;;;9.48;4.20;;;;;;;18.54;52.48;101148.69;681253;28;2109;-79
2023/07/08 00:49:07;;;;;;;7.65;3.90;;;;;;;18.59;52.38;101163.69;687893;28;1080;-78
2023/07/08 00:49:53;;;;;;;7.83;3.90;;;;;;;18.46;52.26;101141.66;685518;28;1068;-79
2023/07/08 00:50:13;;;;;;;5.00;3.67;;;;;;;18.52;52.39;101147.81;685007;28;1289;-80
2023/07/08 00:50:34;;;;;;;4.80;3.60;;;;;;;18.56;52.43;101153.09;685162;28;929;-79
2023/07/08 00:50:55;;;;;;;5.05;3.60;;;;;;;18.55;52.45;101159.25;690668;28;1186;-79
2023/07/08 00:51:19;;;;;;;5.25;3.67;;;;;;;18.55;52.53;101158.41;685538;28;1417;-79
2023/07/08 00:51:40;;;;;;;5.53;3.90;;;;;;;18.54;52.61;101160.16;682802;28;1106;-79
2023/07/08 00:52:27;;;;;;;5.53;3.90;;;;;;;18.52;52.53;101156.63;679996;29;1302;-79
2023/07/08 00:52:48;;;;;;;5.55;3.80;;;;;;;18.49;52.65;101151.31;685227;28;1101;-79
2023/07/08 00:53:41;;;;;;;7.25;3.75;;;;;;;18.55;52.51;101156.63;685069;28;1386;-79
2023/07/08 00:54:02;;;;;;;7.70;3.70;;;;;;;18.52;52.29;101146.06;682817;28;1392;-79
2023/07/08 00:54:23;;;;;;;5.53;3.63;;;;;;;18.49;52.44;101156.59;682192;28;1237;-80
2023/07/08 00:54:43;;;;;;;6.13;3.75;;;;;;;18.47;52.44;101147.81;682905;29;768;-79
2023/07/08 00:55:07;;;;;;;7.20;3.90;;;;;;;18.48;52.50;101150.47;682472;28;1046;-79
2023/07/08 00:55:28;;;;;;;7.10;3.90;;;;;;;18.41;52.36;101135.47;690704;28;1027;-79
2023/07/08 00:55:49;;;;;;;7.20;4.00;;;;;;;18.47;52.45;101145.16;687147;28;1370;-79
2023/07/08 00:56:28;;;;;;;5.68;3.92;;;;;;;18.47;52.45;101148.69;682963;28;1329;-79
2023/07/08 00:57:02;;;;;;;6.15;4.35;;;;;;;18.41;52.73;101142.50;680057;29;1049;-79
2023/07/08 00:57:28;;;;;;;5.85;4.18;;;;;;;18.49;52.76;101161.88;685050;28;981;-79
2023/07/08 00:57:49;;;;;;;5.47;3.90;;;;;;;18.47;52.61;101159.28;685459;28;1167;-78
2023/07/08 00:58:10;;;;;;;6.00;4.00;;;;;;;18.39;52.72;101137.25;682451;28;1176;-79
2023/07/08 00:58:34;;;;;;;8.00;4.13;;;;;;;18.41;52.77;101142.50;680145;28;1251;-79
2023/07/08 00:59:09;;;;;;;7.88;4.20;;;;;;;18.45;52.70;101154.84;685321;28;950;-79
2023/07/08 00:59:36;;;;;;;6.07;4.18;;;;;;;18.36;52.69;101140.75;685597;28;863;-79
2023/07/08 01:00:04;;;;;;;6.07;4.10;;;;;;;18.44;52.85;101155.75;688788;28;1098;-79
2023/07/08 01:00:25;;;;;;;6.80;4.50;;;;;;;18.40;52.89;101151.31;689233;28;1228;-79
2023/07/08 01:00:45;;;;;;;6.93;4.68;;;;;;;18.42;52.75;101155.72;686707;28;1172;-79
2023/07/08 01:01:07;;;;;;;6.25;4.47;;;;;;;18.40;52.87;101140.75;684683;28;1511;-79
2023/07/08 01:01:34;;;;;;;6.07;4.30;;;;;;;18.46;52.82;101151.31;677011;29;1412;-79
2023/07/08 01:01:58;;;;;;;6.43;4.55;;;;;;;18.47;52.56;101158.38;682604;29;1966;-79
2023/07/08 01:02:23;;;;;;;7.43;4.60;;;;;;;18.46;52.84;101159.25;684559;28;1280;-79
2023/07/08 01:02:52;;;;;;;8.57;4.70;;;;;;;18.36;52.99;101132.81;688149;28;1149;-79
2023/07/08 01:03:13;;;;;;;7.78;4.30;;;;;;;18.42;52.97;101149.53;687541;28;1165;-79
2023/07/08 01:03:41;;;;;;;7.03;4.35;;;;;;;18.48;52.67;101154.84;682855;29;832;-79
2023/07/08 01:04:17;;;;;;;7.05;4.22;;;;;;;18.39;52.60;101139.88;684950;28;1354;-80
2023/07/08 01:04:49;;;;;;;9.43;4.40;;;;;;;18.44;52.79;101153.97;682810;28;812;-79
2023/07/08 01:05:15;;;;;;;11.20;4.40;;;;;;;18.39;52.74;101138.97;679648;29;1104;-79
2023/07/08 01:05:38;;;;;;;9.55;4.30;;;;;;;18.48;52.78;101149.56;682271;28;816;-79
2023/07/08 01:05:59;;;;;;;7.85;3.90;;;;;;;18.40;52.69;101146.03;682761;28;1370;-79
2023/07/08 01:06:24;;;;;;;6.72;4.00;;;;;;;18.45;52.61;101144.28;682182;29;1135;-79
2023/07/08 01:06:52;;;;;;;7.20;4.35;;;;;;;18.43;52.96;101151.34;682901;29;879;-79
2023/07/08 01:07:21;;;;;;;6.80;4.32;;;;;;;18.40;52.64;101140.75;684940;28;1320;-78
2023/07/08 01:08:11;;;;;;;7.38;4.50;;;;;;;18.45;52.78;101144.28;685451;28;1128;-79
2023/07/08 01:08:32;;;;;;;7.13;4.47;;;;;;;18.46;52.71;101146.03;687927;28;1358;-78
2023/07/08 01:08:53;;;;;;;5.97;4.20;;;;;;;18.53;52.61;101158.38;682469;29;998;-79
2023/07/08 01:09:15;;;;;;;6.40;4.25;;;;;;;18.49;52.56;101154.84;679628;29;1133;-80
2023/07/08 01:09:43;;;;;;;7.20;4.28;;;;;;;18.47;52.50;101143.41;684270;28;766;-79
2023/07/08 01:10:12;;;;;;;8.68;4.30;;;;;;;18.49;52.68;101151.31;687741;28;1057;-79
2023/07/08 01:10:39;;;;;;;9.80;4.43;;;;;;;18.50;52.70;101153.06;685444;28;886;-79
2023/07/08 01:11:03;;;;;;;9.15;4.60;;;;;;;18.45;52.73;101145.16;685457;28;1239;-79
2023/07/08 01:11:24;;;;;;;8.68;4.40;;;;;;;18.51;52.92;101154.88;685070;28;1023;-79
2023/07/08 01:11:45;;;;;;;8.10;4.25;;;;;;;18.48;52.89;101146.91;685421;28;1152;-79
2023/07/08 01:12:10;;;;;;;8.25;4.20;;;;;;;18.46;52.79;101146.03;679845;29;1259;-79
2023/07/08 01:12:38;;;;;;;7.20;4.10;;;;;;;18.45;52.62;101139.84;685374;28;922;-80
2023/07/08 01:13:04;;;;;;;7.30;4.20;;;;;;;18.41;52.96;101132.81;683320;28;1297;-79
2023/07/08 01:13:25;;;;;;;7.10;4.40;;;;;;;18.47;53.07;101142.50;679742;29;986;-79
2023/07/08 01:13:50;;;;;;;6.28;4.60;;;;;;;18.47;52.80;101147.81;685184;28;1377;-79
2023/07/08 01:14:15;;;;;;;7.65;4.60;;;;;;;18.42;52.97;101133.69;679700;29;1159;-79
2023/07/08 01:14:38;;;;;;;7.18;4.40;;;;;;;18.43;52.94;101140.78;682800;29;859;-79
2023/07/08 01:15:03;;;;;;;6.65;4.30;;;;;;;18.44;52.96;101138.09;687476;28;1216;-79
2023/07/08 01:15:31;;;;;;;7.13;4.22;;;;;;;18.43;52.95;101136.34;679756;28;1296;-79
2023/07/08 01:15:51;;;;;;;6.30;4.10;;;;;;;18.45;53.06;101137.22;677087;29;939;-79
2023/07/08 01:16:15;;;;;;;6.10;4.10;;;;;;;18.45;52.97;101141.63;682308;29;993;-79
2023/07/08 01:16:36;;;;;;;6.28;4.28;;;;;;;18.40;52.81;101131.06;682853;29;780;-79
2023/07/08 01:16:57;;;;;;;8.15;4.22;;;;;;;18.48;52.76;101144.28;682764;28;981;-79
2023/07/08 01:17:18;;;;;;;8.63;4.20;;;;;;;18.45;52.91;101139.00;684478;28;1139;-79
2023/07/08 01:17:39;;;;;;;8.25;4.30;;;;;;;18.42;52.83;101136.34;685689;28;1098;-79
2023/07/08 01:18:00;;;;;;;7.88;4.30;;;;;;;18.47;52.93;101143.41;677344;29;1289;-80
2023/07/08 01:18:21;;;;;;;7.07;4.05;;;;;;;18.39;52.86;101139.88;679382;29;1382;-78
2023/07/08 01:18:43;;;;;;;8.13;4.20;;;;;;;18.46;52.92;101146.03;682753;28;871;-79
2023/07/08 01:19:10;;;;;;;6.65;4.28;;;;;;;18.43;53.00;101146.06;685099;28;1211;-79
2023/07/08 01:19:34;;;;;;;6.28;4.28;;;;;;;18.42;52.67;101144.25;687898;28;1372;-79
2023/07/08 01:19:55;;;;;;;6.30;4.40;;;;;;;18.38;53.34;101137.22;687954;28;1005;-79
2023/07/08 01:20:16;;;;;;;6.82;4.22;;;;;;;18.33;52.82;101126.66;682112;29;1091;-79
2023/07/08 01:20:37;;;;;;;6.75;4.22;;;;;;;18.40;52.86;101146.91;682805;29;761;-79
2023/07/08 01:21:06;;;;;;;6.55;4.13;;;;;;;18.36;52.73;101134.56;680100;29;986;-79
2023/07/08 01:21:34;;;;;;;7.47;4.40;;;;;;;18.32;52.90;101135.47;685208;28;1069;-79
2023/07/08 01:22:03;;;;;;;7.68;4.20;;;;;;;18.41;53.00;101145.16;687779;28;1974;-79
2023/07/08 01:22:23;;;;;;;6.88;3.80;;;;;;;18.27;52.87;101130.19;687790;28;894;-79
2023/07/08 01:22:44;;;;;;;8.85;4.18;;;;;;;18.35;52.96;101144.28;688449;28;1362;-79
2023/07/08 01:23:05;;;;;;;7.88;4.10;;;;;;;18.35;53.08;101146.91;687900;28;1178;-81
2023/07/08 01:23:27;;;;;;;8.00;4.20;;;;;;;18.38;53.04;101147.78;685101;28;1225;-79
2023/07/08 01:23:47;;;;;;;7.05;4.45;;;;;;;18.28;52.94;101125.75;685481;28;1060;-79
2023/07/08 01:24:11;;;;;;;7.47;4.60;;;;;;;18.38;52.76;101137.22;679733;28;1305;-79
2023/07/08 01:24:34;;;;;;;6.68;4.50;;;;;;;18.31;53.02;101131.94;684984;28;1247;-79
2023/07/08 01:24:55;;;;;;;5.45;4.10;;;;;;;18.32;52.99;101127.53;680093;29;938;-79
2023/07/08 01:25:16;;;;;;;6.15;4.28;;;;;;;18.29;53.25;101122.22;682272;28;1199;-79
2023/07/08 01:25:38;;;;;;;8.13;4.45;;;;;;;18.35;53.23;101133.72;682300;28;844;-79
2023/07/08 01:25:59;;;;;;;7.80;4.30;;;;;;;18.36;53.46;101143.41;680121;29;1200;-79
2023/07/08 01:26:24;;;;;;;7.88;4.22;;;;;;;18.29;53.60;101127.50;682376;29;1075;-79
2023/07/08 01:26:46;;;;;;;7.00;4.20;;;;;;;18.30;53.10;101129.28;685381;28;1050;-80
2023/07/08 01:27:12;;;;;;;8.52;4.22;;;;;;;18.36;53.13;101139.84;687821;28;1210;-79
2023/07/08 01:27:38;;;;;;;7.13;4.00;;;;;;;18.36;53.38;101142.50;685443;28;902;-79
2023/07/08 01:27:59;;;;;;;7.80;4.25;;;;;;;18.23;53.26;101117.81;683005;28;1132;-79
2023/07/08 01:28:21;;;;;;;6.90;4.30;;;;;;;18.29;53.35;101132.78;684915;28;1264;-79
2023/07/08 01:28:42;;;;;;;8.52;4.40;;;;;;;18.23;53.38;101120.47;685470;28;795;-79
2023/07/08 01:29:03;;;;;;;7.53;4.30;;;;;;;18.21;53.47;101123.09;682529;28;993;-79
2023/07/08 01:29:24;;;;;;;6.78;4.00;;;;;;;18.20;53.70;101117.84;681861;29;1092;-79
2023/07/08 01:29:46;;;;;;;5.80;4.10;;;;;;;18.21;53.49;101116.94;682900;28;1189;-79
2023/07/08 01:30:08;;;;;;;6.90;4.40;;;;;;;18.15;53.55;101109.91;685085;28;1287;-79
2023/07/08 01:30:29;;;;;;;7.68;4.65;;;;;;;18.24;53.40;101124.88;684946;28;1384;-80
2023/07/08 01:30:50;;;;;;;7.97;4.60;;;;;;;18.19;53.46;101122.22;682523;28;1367;-79
2023/07/08 01:31:10;;;;;;;7.38;4.30;;;;;;;18.26;53.51;101128.38;681964;29;1163;-80
2023/07/08 01:31:31;;;;;;;7.05;4.18;;;;;;;18.27;53.66;101139.84;686158;28;1338;-79
2023/07/08 01:31:55;;;;;;;7.50;4.00;;;;;;;18.18;53.61;101130.13;690657;28;1253;-79
2023/07/08 01:32:47;;;;;;;7.13;4.20;;;;;;;18.25;53.51;101136.31;685857;28;1302;-79
2023/07/08 01:33:18;;;;;;;5.72;4.30;;;;;;;18.19;53.64;101129.28;682430;28;1362;-79
2023/07/08 01:33:39;;;;;;;6.57;4.38;;;;;;;18.18;53.61;101133.66;685388;28;1196;-79
2023/07/08 01:34:00;;;;;;;7.65;4.57;;;;;;;18.11;53.80;101117.75;686059;28;1368;-79
2023/07/08 01:34:21;;;;;;;7.93;4.78;;;;;;;18.08;53.79;101119.53;684894;28;1334;-79
2023/07/08 01:34:42;;;;;;;7.00;4.70;;;;;;;18.06;53.78;101121.28;685426;28;1145;-79
2023/07/08 01:35:04;;;;;;;5.85;4.50;;;;;;;18.03;53.77;101118.66;684861;28;1339;-79
2023/07/08 01:35:25;;;;;;;6.47;4.22;;;;;;;18.05;53.95;101124.81;687731;28;993;-79
2023/07/08 01:35:49;;;;;;;8.10;4.30;;;;;;;18.01;53.76;101116.88;682437;28;1123;-79
2023/07/08 01:36:11;;;;;;;7.57;4.70;;;;;;;18.07;53.96;101122.19;682621;28;1451;-79
2023/07/08 01:36:40;;;;;;;8.02;4.72;;;;;;;18.04;53.88;101123.06;685142;28;1037;-79
2023/07/08 01:37:03;;;;;;;8.13;4.72;;;;;;;18.07;54.07;101122.19;685564;28;1013;-79
2023/07/08 01:37:27;;;;;;;8.30;4.70;;;;;;;18.08;54.20;101126.59;687696;28;1325;-79
2023/07/08 01:37:58;;;;;;;8.38;4.68;;;;;;;18.07;54.18;101128.31;682674;28;1242;-79
2023/07/08 01:38:25;;;;;;;8.15;4.10;;;;;;;18.01;54.26;101116.88;682110;28;1419;-79
2023/07/08 01:38:47;;;;;;;7.43;4.20;;;;;;;18.04;54.41;101125.69;682641;28;1066;-79
2023/07/08 01:39:13;;;;;;;8.25;4.53;;;;;;;18.03;54.35;101120.41;684853;28;1573;-79
2023/07/08 01:39:34;;;;;;;7.80;4.50;;;;;;;18.03;54.21;101120.41;687459;28;810;-79
2023/07/08 01:39:55;;;;;;;8.15;4.57;;;;;;;17.98;54.17;101115.09;683280;28;1182;-79
2023/07/08 01:40:18;;;;;;;8.65;4.50;;;;;;;18.08;54.34;101123.94;684465;28;1198;-79
2023/07/08 01:40:52;;;;;;;8.85;4.60;;;;;;;17.96;54.42;101106.31;688067;28;847;-79
2023/07/08 01:41:16;;;;;;;7.28;4.40;;;;;;;17.99;54.39;101114.22;682251;29;1027;-79
2023/07/08 01:41:36;;;;;;;7.32;4.55;;;;;;;17.98;54.47;101111.56;677515;28;1386;-79
2023/07/08 01:41:58;;;;;;;7.65;4.50;;;;;;;18.01;54.54;101114.25;679949;29;1902;-79
2023/07/08 01:42:18;;;;;;;7.50;4.55;;;;;;;17.94;54.59;101101.00;682271;28;1365;-79
2023/07/08 01:42:39;;;;;;;7.50;4.20;;;;;;;18.01;54.48;101117.75;682799;28;1330;-79
2023/07/08 01:43:01;;;;;;;7.70;4.05;;;;;;;18.06;54.53;101109.81;678306;28;1287;-79
2023/07/08 01:43:22;;;;;;;7.05;4.00;;;;;;;18.09;54.50;101126.56;679643;29;999;-79
2023/07/08 01:43:44;;;;;;;7.03;4.20;;;;;;;18.05;54.32;101110.72;682540;28;772;-80
2023/07/08 01:44:05;;;;;;;7.18;4.40;;;;;;;18.12;54.49;101124.84;684764;28;1159;-79
2023/07/08 01:44:34;;;;;;;7.40;4.30;;;;;;;18.06;54.33;101116.00;679638;29;1083;-79
2023/07/08 01:44:55;;;;;;;7.15;4.13;;;;;;;18.07;54.54;101120.41;684045;28;1800;-78
2023/07/08 01:45:18;;;;;;;7.07;4.28;;;;;;;18.12;54.32;101116.91;687622;28;1073;-79
2023/07/08 01:45:41;;;;;;;7.35;4.22;;;;;;;18.11;54.41;101121.28;687334;28;1354;-79
2023/07/08 01:46:03;;;;;;;9.45;4.53;;;;;;;18.02;54.23;101103.66;682578;29;1056;-79
2023/07/08 01:46:26;;;;;;;9.40;4.50;;;;;;;18.06;54.28;101116.00;679597;28;1356;-79
2023/07/08 01:46:47;;;;;;;8.52;4.30;;;;;;;18.13;54.08;101121.31;682573;28;1070;-79
2023/07/08 01:47:14;;;;;;;9.00;4.30;;;;;;;18.08;54.33;101113.38;687675;28;1035;-79
2023/07/08 01:47:34;;;;;;;8.73;4.50;;;;;;;18.04;54.36;101115.13;687772;28;1329;-79
2023/07/08 01:48:03;;;;;;;8.33;4.43;;;;;;;18.07;54.34;101112.47;682579;28;930;-79
2023/07/08 01:48:30;;;;;;;5.88;4.30;;;;;;;18.05;54.35;101103.69;679895;29;1415;-79
2023/07/08 01:48:56;;;;;;;5.65;4.00;;;;;;;18.05;54.22;101103.69;685230;28;1385;-79
2023/07/08 01:49:18;;;;;;;5.40;3.90;;;;;;;18.04;54.50;101107.22;682713;28;1139;-79
2023/07/08 01:49:42;;;;;;;5.50;3.85;;;;;;;18.12;54.45;101119.56;682665;28;1115;-79
2023/07/08 01:50:03;;;;;;;6.70;4.20;;;;;;;18.04;54.35;101101.94;690715;28;1303;-79
2023/07/08 01:50:25;;;;;;;6.90;4.30;;;;;;;18.00;54.24;101102.78;684964;28;1279;-79
2023/07/08 01:50:56;;;;;;;6.60;4.20;;;;;;;18.11;54.29;101123.03;682673;28;990;-78
2023/07/08 01:51:17;;;;;;;6.22;3.97;;;;;;;18.07;54.19;101114.25;688810;28;1150;-79
2023/07/08 01:51:38;;;;;;;6.10;3.95;;;;;;;18.01;54.49;101101.91;685492;28;806;-79
2023/07/08 01:51:59;;;;;;;6.80;4.03;;;;;;;18.00;54.28;101094.84;685107;28;1209;-79
2023/07/08 01:52:20;;;;;;;6.85;4.20;;;;;;;18.00;54.35;101105.41;690233;28;1250;-79
2023/07/08 01:52:41;;;;;;;7.40;4.00;;;;;;;17.98;54.40;101090.44;688032;28;1389;-79
2023/07/08 01:53:08;;;;;;;6.55;4.00;;;;;;;17.98;54.06;101095.72;685360;28;1482;-79
2023/07/08 01:53:38;;;;;;;6.63;3.70;;;;;;;18.07;54.51;101117.75;682193;29;1309;-79
2023/07/08 01:53:58;;;;;;;6.32;3.72;;;;;;;18.07;54.72;101114.25;685350;28;1098;-79
2023/07/08 01:54:19;;;;;;;8.38;4.10;;;;;;;17.94;54.74;101094.84;687348;28;1206;-79
2023/07/08 01:54:40;;;;;;;8.13;4.27;;;;;;;18.04;54.82;101120.41;682647;29;788;-79